Time;durP1;ratioP1;P1;durP2;ratioP2;P2;SDS_P1;SDS_P2;PMS_P1;PMS_P2;Temp;Humidity;BMP_temperature;BMP_pressure;BME280_temperature;BME280_humidity;BME280_pressure;Samples;Min_cycle;Max_cycle;Signal;HPM_P1;HPM_P2
2023/09/14 00:00:44;;;;;;;;;17.00;17.00;;;;;;;;5059456;28;45301;-76
2023/09/14 00:03:09;;;;;;;;;17.33;15.67;;;;;;;;5041165;28;48208;-76
2023/09/14 00:05:41;;;;;;;;;14.00;10.67;;;;;;;;5041128;28;45363;-76
2023/09/14 00:08:06;;;;;;;;;15.33;15.33;;;;;;;;5059315;28;45349;-76
2023/09/14 00:10:32;;;;;;;;;15.33;15.33;;;;;;;;5059284;28;45577;-76
2023/09/14 00:12:57;;;;;;;;;18.33;16.67;;;;;;;;5059048;28;45403;-76
2023/09/14 00:15:22;;;;;;;;;15.00;15.00;;;;;;;;5041074;28;45770;-76
2023/09/14 00:17:47;;;;;;;;;15.00;15.00;;;;;;;;5041204;28;45265;-76
2023/09/14 00:20:20;;;;;;;;;14.33;14.33;;;;;;;;5059268;28;45339;-77
2023/09/14 00:22:45;;;;;;;;;11.00;11.00;;;;;;;;5058838;28;45288;-76
2023/09/14 00:25:11;;;;;;;;;11.67;11.67;;;;;;;;5059119;28;45321;-76
2023/09/14 00:27:36;;;;;;;;;16.33;15.00;;;;;;;;5058972;28;45232;-76
2023/09/14 00:30:01;;;;;;;;;14.67;14.67;;;;;;;;5048273;28;46114;-77
2023/09/14 00:32:27;;;;;;;;;15.00;14.00;;;;;;;;5058539;28;45327;-76
2023/09/14 00:34:53;;;;;;;;;15.00;14.67;;;;;;;;5045105;28;45388;-77
2023/09/14 00:37:18;;;;;;;;;15.00;15.00;;;;;;;;5058512;28;45168;-77
2023/09/14 00:39:44;;;;;;;;;15.33;15.33;;;;;;;;5058626;28;45260;-76
2023/09/14 00:42:09;;;;;;;;;17.00;16.67;;;;;;;;5058570;28;45427;-76
2023/09/14 00:44:34;;;;;;;;;14.00;14.00;;;;;;;;5058766;28;45225;-76
2023/09/14 00:46:59;;;;;;;;;15.33;14.67;;;;;;;;5058916;28;45265;-76
2023/09/14 00:49:25;;;;;;;;;14.00;13.67;;;;;;;;5040624;28;46032;-77
2023/09/14 00:51:50;;;;;;;;;15.67;15.00;;;;;;;;5058641;28;46188;-76
2023/09/14 00:54:16;;;;;;;;;16.00;16.00;;;;;;;;5058592;28;45236;-76
2023/09/14 00:56:41;;;;;;;;;15.67;14.33;;;;;;;;5058597;28;45371;-78
2023/09/14 00:59:07;;;;;;;;;17.67;16.00;;;;;;;;5058717;28;45343;-77
2023/09/14 01:01:32;;;;;;;;;17.00;16.00;;;;;;;;5040310;28;47396;-77
2023/09/14 01:03:58;;;;;;;;;13.33;13.33;;;;;;;;5058657;28;45248;-76
2023/09/14 01:06:24;;;;;;;;;14.33;14.33;;;;;;;;5058764;28;45499;-76
2023/09/14 01:08:50;;;;;;;;;16.00;15.33;;;;;;;;5042219;28;46017;-77
2023/09/14 01:11:15;;;;;;;;;16.33;15.67;;;;;;;;5043461;28;47443;-76
2023/09/14 01:13:52;;;;;;;;;16.00;15.33;;;;;;;;5062016;28;45397;-76
2023/09/14 01:16:40;;;;;;;;;16.67;15.67;;;;;;;;5062107;28;45561;-76
2023/09/14 01:19:25;;;;;;;;;15.67;15.67;;;;;;;;5030347;28;46169;-76
2023/09/14 01:22:12;;;;;;;;;12.67;12.00;;;;;;;;5061568;28;45275;-77
2023/09/14 01:24:50;;;;;;;;;17.00;14.00;;;;;;;;5043338;28;45645;-76
2023/09/14 01:27:15;;;;;;;;;14.00;14.00;;;;;;;;5061832;28;45367;-76
2023/09/14 01:29:40;;;;;;;;;15.33;15.33;;;;;;;;5061475;28;45449;-76
2023/09/14 01:32:06;;;;;;;;;12.33;11.33;;;;;;;;5043566;28;47165;-76
2023/09/14 01:34:31;;;;;;;;;15.00;15.00;;;;;;;;5043350;28;45270;-77
2023/09/14 01:36:58;;;;;;;;;11.00;11.00;;;;;;;;5043414;28;45288;-76
2023/09/14 01:39:24;;;;;;;;;17.67;15.33;;;;;;;;5043296;28;46375;-77
2023/09/14 01:41:54;;;;;;;;;14.67;14.67;;;;;;;;5061406;28;46236;-76
2023/09/14 01:44:20;;;;;;;;;12.00;10.33;;;;;;;;5043044;28;45880;-76
2023/09/14 01:46:45;;;;;;;;;15.67;13.67;;;;;;;;5061474;28;45331;-76
2023/09/14 01:49:10;;;;;;;;;20.00;16.67;;;;;;;;5061504;28;45283;-77
2023/09/14 01:51:36;;;;;;;;;12.00;12.00;;;;;;;;5061243;28;45941;-76
2023/09/14 01:54:01;;;;;;;;;16.33;15.67;;;;;;;;5061142;28;45394;-77
2023/09/14 01:56:26;;;;;;;;;16.67;16.67;;;;;;;;5043284;28;45317;-77
2023/09/14 01:58:52;;;;;;;;;14.33;14.33;;;;;;;;5061037;28;45308;-77
2023/09/14 02:01:17;;;;;;;;;14.33;14.33;;;;;;;;5061186;28;45308;-77
2023/09/14 02:03:42;;;;;;;;;15.00;14.00;;;;;;;;5061254;28;45315;-76
2023/09/14 02:06:07;;;;;;;;;17.00;16.67;;;;;;;;5061093;28;45263;-77
2023/09/14 02:08:32;;;;;;;;;16.67;16.67;;;;;;;;5060975;28;45276;-77
2023/09/14 02:10:58;;;;;;;;;18.00;16.33;;;;;;;;5060872;28;46119;-77
2023/09/14 02:13:23;;;;;;;;;15.67;15.67;;;;;;;;5061032;28;45730;-76
2023/09/14 02:15:49;;;;;;;;;13.67;13.67;;;;;;;;5042854;28;45731;-76
2023/09/14 02:18:14;;;;;;;;;17.33;17.33;;;;;;;;5060961;28;45478;-76
2023/09/14 02:20:39;;;;;;;;;17.67;16.00;;;;;;;;5060242;28;45279;-77
2023/09/14 02:23:05;;;;;;;;;19.67;19.67;;;;;;;;5060627;28;45215;-76
2023/09/14 02:25:31;;;;;;;;;14.00;14.00;;;;;;;;5060605;28;45578;-76
2023/09/14 02:27:56;;;;;;;;;15.00;15.00;;;;;;;;5060759;28;45209;-76
2023/09/14 02:30:21;;;;;;;;;14.33;14.33;;;;;;;;5078036;28;45336;-77
2023/09/14 02:32:46;;;;;;;;;14.33;14.00;;;;;;;;5081030;28;45319;-76
2023/09/14 02:35:11;;;;;;;;;17.67;15.67;;;;;;;;5081090;28;45238;-76
2023/09/14 02:37:37;;;;;;;;;16.00;16.00;;;;;;;;5062283;28;47040;-76
2023/09/14 02:40:06;;;;;;;;;17.67;17.33;;;;;;;;5080876;28;46428;-77
2023/09/14 02:42:31;;;;;;;;;16.67;16.67;;;;;;;;5062709;28;45331;-76
2023/09/14 02:44:56;;;;;;;;;16.00;15.67;;;;;;;;5080859;28;45501;-76
2023/09/14 02:47:21;;;;;;;;;14.67;13.67;;;;;;;;5080838;28;45302;-77
2023/09/14 02:49:47;;;;;;;;;15.00;14.67;;;;;;;;5080634;28;45502;-75
2023/09/14 02:52:12;;;;;;;;;20.33;18.33;;;;;;;;5080544;28;45299;-76
2023/09/14 02:54:37;;;;;;;;;15.67;15.67;;;;;;;;5080842;28;45576;-77
2023/09/14 02:57:02;;;;;;;;;20.00;19.33;;;;;;;;5062169;28;47588;-76
2023/09/14 02:59:28;;;;;;;;;17.00;17.00;;;;;;;;5080631;28;46069;-76
2023/09/14 03:01:53;;;;;;;;;21.00;19.33;;;;;;;;5062323;28;45360;-76
2023/09/14 03:04:18;;;;;;;;;19.00;18.00;;;;;;;;5080825;28;45389;-76
2023/09/14 03:06:43;;;;;;;;;20.67;16.67;;;;;;;;5080414;28;45220;-76
2023/09/14 03:09:08;;;;;;;;;18.33;18.00;;;;;;;;5061818;28;47316;-76
2023/09/14 03:11:34;;;;;;;;;17.00;16.00;;;;;;;;5080452;28;45338;-76
2023/09/14 03:13:59;;;;;;;;;17.00;17.00;;;;;;;;5080612;28;45260;-76
2023/09/14 03:16:24;;;;;;;;;17.67;17.67;;;;;;;;5062090;28;46542;-76
2023/09/14 03:18:49;;;;;;;;;18.00;17.33;;;;;;;;5080348;28;45354;-76
2023/09/14 03:21:21;;;;;;;;;18.00;18.00;;;;;;;;5080140;28;45204;-76
2023/09/14 03:23:47;;;;;;;;;21.67;20.00;;;;;;;;5080254;28;45343;-76
2023/09/14 03:26:13;;;;;;;;;19.33;17.67;;;;;;;;5080121;28;45529;-76
2023/09/14 03:28:38;;;;;;;;;19.33;17.33;;;;;;;;5077043;28;45433;-76
2023/09/14 03:31:03;;;;;;;;;15.67;15.67;;;;;;;;5059123;28;45162;-76
2023/09/14 03:33:29;;;;;;;;;18.00;18.00;;;;;;;;5041729;28;45272;-76
2023/09/14 03:35:54;;;;;;;;;16.67;16.67;;;;;;;;5059594;28;45244;-76
2023/09/14 03:38:20;;;;;;;;;18.33;18.33;;;;;;;;5041316;28;47268;-76
2023/09/14 03:40:45;;;;;;;;;14.00;13.00;;;;;;;;5041677;28;45850;-76
2023/09/14 03:43:10;;;;;;;;;17.67;17.33;;;;;;;;5059767;28;46565;-76
2023/09/14 03:45:36;;;;;;;;;17.67;15.33;;;;;;;;5059682;28;45407;-76
2023/09/14 03:48:02;;;;;;;;;17.67;17.00;;;;;;;;5059620;28;45370;-77
2023/09/14 03:50:27;;;;;;;;;18.00;18.00;;;;;;;;5059388;28;45324;-76
2023/09/14 03:52:52;;;;;;;;;19.33;19.33;;;;;;;;5059519;28;45288;-76
2023/09/14 03:55:17;;;;;;;;;14.33;14.33;;;;;;;;5059470;28;45272;-76
2023/09/14 03:57:47;;;;;;;;;18.00;17.33;;;;;;;;5059152;28;45260;-76
2023/09/14 04:00:14;;;;;;;;;16.33;16.33;;;;;;;;5059518;28;45315;-76
2023/09/14 04:02:39;;;;;;;;;17.00;17.00;;;;;;;;5059486;28;45477;-77
2023/09/14 04:05:11;;;;;;;;;15.00;15.00;;;;;;;;5059370;28;45233;-77
2023/09/14 04:07:37;;;;;;;;;21.00;18.00;;;;;;;;5059019;28;46419;-76
2023/09/14 04:10:04;;;;;;;;;17.00;17.00;;;;;;;;5040950;28;45408;-76
2023/09/14 04:12:30;;;;;;;;;19.33;17.67;;;;;;;;5059415;28;45277;-76
2023/09/14 04:14:55;;;;;;;;;21.33;19.33;;;;;;;;5059142;28;45487;-77
2023/09/14 04:17:20;;;;;;;;;21.33;18.67;;;;;;;;5041125;28;48565;-77
2023/09/14 04:19:45;;;;;;;;;19.33;18.00;;;;;;;;5059231;28;45507;-76
2023/09/14 04:22:10;;;;;;;;;19.67;18.67;;;;;;;;5059026;28;45328;-77
2023/09/14 04:24:36;;;;;;;;;19.00;15.33;;;;;;;;5059175;28;45329;-76
2023/09/14 04:27:01;;;;;;;;;18.00;17.67;;;;;;;;5059105;28;46231;-76
2023/09/14 04:29:26;;;;;;;;;17.33;16.67;;;;;;;;5050552;28;45322;-77
2023/09/14 04:31:51;;;;;;;;;18.33;18.33;;;;;;;;5079484;28;45305;-77
2023/09/14 04:34:16;;;;;;;;;18.00;17.00;;;;;;;;5061070;28;46972;-76
2023/09/14 04:36:42;;;;;;;;;18.00;17.00;;;;;;;;5079030;28;45345;-76
2023/09/14 04:39:07;;;;;;;;;17.33;16.00;;;;;;;;5079160;28;45299;-76
2023/09/14 04:41:32;;;;;;;;;14.33;13.33;;;;;;;;5079407;28;45313;-76
2023/09/14 04:43:57;;;;;;;;;18.33;18.33;;;;;;;;5081174;28;45317;-77
2023/09/14 04:46:23;;;;;;;;;18.67;17.67;;;;;;;;5082557;28;45273;-76
2023/09/14 04:48:48;;;;;;;;;16.67;16.33;;;;;;;;5082794;28;45346;-76
2023/09/14 04:51:13;;;;;;;;;15.67;15.67;;;;;;;;5082739;28;45554;-76
2023/09/14 04:53:39;;;;;;;;;20.00;18.33;;;;;;;;5063656;28;45431;-76
2023/09/14 04:56:04;;;;;;;;;18.33;17.00;;;;;;;;5061767;28;45522;-76
2023/09/14 04:58:29;;;;;;;;;17.00;17.00;;;;;;;;5061386;28;45494;-76
2023/09/14 05:00:54;;;;;;;;;18.33;15.33;;;;;;;;5062152;28;45330;-77
2023/09/14 05:03:19;;;;;;;;;16.67;16.67;;;;;;;;5043771;28;46118;-76
2023/09/14 05:05:53;;;;;;;;;17.67;17.00;;;;;;;;5061617;28;45981;-76
2023/09/14 05:08:18;;;;;;;;;17.00;17.00;;;;;;;;5061956;28;45582;-77
2023/09/14 05:10:43;;;;;;;;;18.00;17.00;;;;;;;;5062056;28;45298;-76
2023/09/14 05:13:08;;;;;;;;;15.00;15.00;;;;;;;;5061621;28;45457;-76
2023/09/14 05:15:34;;;;;;;;;20.33;18.00;;;;;;;;5061771;28;45393;-76
2023/09/14 05:17:59;;;;;;;;;15.67;15.67;;;;;;;;5062053;28;45316;-76
2023/09/14 05:20:24;;;;;;;;;17.67;16.67;;;;;;;;5061997;28;45304;-76
2023/09/14 05:22:49;;;;;;;;;18.00;18.00;;;;;;;;5061661;28;45628;-77
2023/09/14 05:25:14;;;;;;;;;18.00;16.00;;;;;;;;5061817;28;45423;-76
2023/09/14 05:27:40;;;;;;;;;16.00;15.00;;;;;;;;5061741;28;45459;-76
2023/09/14 05:30:06;;;;;;;;;13.67;12.67;;;;;;;;5058940;28;45307;-76
2023/09/14 05:32:32;;;;;;;;;17.67;15.67;;;;;;;;5082472;28;45468;-76
2023/09/14 05:34:57;;;;;;;;;14.67;14.67;;;;;;;;5086324;28;45284;-76
2023/09/14 05:37:23;;;;;;;;;17.33;17.33;;;;;;;;5075583;28;45368;-75
2023/09/14 05:39:48;;;;;;;;;12.67;12.67;;;;;;;;5061748;28;45326;-75
2023/09/14 05:42:13;;;;;;;;;16.67;15.67;;;;;;;;5043473;28;46041;-75
2023/09/14 05:44:38;;;;;;;;;14.33;13.67;;;;;;;;5043181;28;47172;-75
2023/09/14 05:47:03;;;;;;;;;17.00;14.67;;;;;;;;5043334;28;45271;-75
2023/09/14 05:49:29;;;;;;;;;16.67;16.67;;;;;;;;5061644;28;45173;-76
2023/09/14 05:51:54;;;;;;;;;13.00;13.00;;;;;;;;5061231;28;45488;-76
2023/09/14 05:54:19;;;;;;;;;15.67;15.67;;;;;;;;5060682;28;45274;-75
2023/09/14 05:56:44;;;;;;;;;16.33;16.00;;;;;;;;5042948;28;45314;-75
2023/09/14 05:59:10;;;;;;;;;15.67;14.00;;;;;;;;5061846;28;45437;-75
2023/09/14 06:01:36;;;;;;;;;14.33;14.33;;;;;;;;5061446;28;45165;-76
2023/09/14 06:04:01;;;;;;;;;15.33;15.33;;;;;;;;5062173;28;46159;-77
2023/09/14 06:06:26;;;;;;;;;15.00;15.00;;;;;;;;5062724;28;45258;-76
2023/09/14 06:08:51;;;;;;;;;14.33;14.33;;;;;;;;5062223;28;45335;-76
2023/09/14 06:11:17;;;;;;;;;15.00;15.00;;;;;;;;5061611;28;45610;-75
2023/09/14 06:13:42;;;;;;;;;17.67;17.33;;;;;;;;5061361;28;46251;-76
2023/09/14 06:16:07;;;;;;;;;17.00;17.00;;;;;;;;5063647;28;44731;-77
2023/09/14 06:18:33;;;;;;;;;19.67;19.00;;;;;;;;5045125;28;45359;-76
2023/09/14 06:20:58;;;;;;;;;19.33;18.33;;;;;;;;5063263;28;45615;-77
2023/09/14 06:23:23;;;;;;;;;15.33;14.00;;;;;;;;5064365;28;46583;-76
2023/09/14 06:25:50;;;;;;;;;17.67;17.67;;;;;;;;5062922;28;45429;-79
2023/09/14 06:28:15;;;;;;;;;14.00;14.00;;;;;;;;5045238;28;45249;-78
2023/09/14 06:30:40;;;;;;;;;15.00;15.00;;;;;;;;5064262;28;46224;-79
2023/09/14 06:33:06;;;;;;;;;12.67;11.67;;;;;;;;5081783;28;46585;-81
2023/09/14 06:35:31;;;;;;;;;15.67;15.00;;;;;;;;5081528;28;45296;-78
2023/09/14 06:37:56;;;;;;;;;14.33;14.33;;;;;;;;5071446;28;45399;-80
2023/09/14 06:40:22;;;;;;;;;17.00;16.00;;;;;;;;5045595;28;46317;-78
2023/09/14 06:42:47;;;;;;;;;19.33;18.33;;;;;;;;5060584;28;45366;-78
2023/09/14 06:45:12;;;;;;;;;13.67;13.67;;;;;;;;5042115;28;45299;-78
2023/09/14 06:47:38;;;;;;;;;13.67;13.67;;;;;;;;5060528;28;45347;-77
2023/09/14 06:50:04;;;;;;;;;11.00;10.00;;;;;;;;5060259;28;45501;-77
2023/09/14 06:52:30;;;;;;;;;14.00;14.00;;;;;;;;5060058;28;45229;-77
2023/09/14 06:54:56;;;;;;;;;15.67;14.67;;;;;;;;5039613;28;45295;-79
2023/09/14 06:57:21;;;;;;;;;14.33;14.33;;;;;;;;5059415;28;45490;-79
2023/09/14 06:59:46;;;;;;;;;15.00;15.00;;;;;;;;5056563;28;45507;-78
2023/09/14 07:02:11;;;;;;;;;13.00;11.00;;;;;;;;5059763;28;46603;-78
2023/09/14 07:04:36;;;;;;;;;15.33;15.33;;;;;;;;5060034;28;45408;-79
2023/09/14 07:07:02;;;;;;;;;13.00;12.67;;;;;;;;5058896;28;45569;-78
2023/09/14 07:09:28;;;;;;;;;15.67;14.00;;;;;;;;5059621;28;45471;-78
2023/09/14 07:11:53;;;;;;;;;17.67;17.67;;;;;;;;5039715;28;47740;-77
2023/09/14 07:14:18;;;;;;;;;21.00;19.67;;;;;;;;5058498;28;45659;-76
2023/09/14 07:16:43;;;;;;;;;37.67;30.00;;;;;;;;5056997;28;45568;-77
2023/09/14 07:19:08;;;;;;;;;34.33;29.67;;;;;;;;5059992;28;45408;-76
2023/09/14 07:21:37;;;;;;;;;27.33;27.33;;;;;;;;5059509;28;46223;-76
2023/09/14 07:24:03;;;;;;;;;18.33;17.33;;;;;;;;5037151;28;45517;-76
2023/09/14 07:26:29;;;;;;;;;16.67;16.33;;;;;;;;5058967;28;45152;-76
2023/09/14 07:28:54;;;;;;;;;16.33;16.00;;;;;;;;5064345;28;45546;-76
2023/09/14 07:31:19;;;;;;;;;18.33;18.33;;;;;;;;5074107;28;46136;-75
2023/09/14 07:33:45;;;;;;;;;20.00;18.00;;;;;;;;5041292;28;45460;-77
2023/09/14 07:36:10;;;;;;;;;17.67;17.33;;;;;;;;5059056;28;45392;-76
2023/09/14 07:38:35;;;;;;;;;25.67;21.00;;;;;;;;5059258;28;45501;-75
2023/09/14 07:41:00;;;;;;;;;28.33;26.00;;;;;;;;5041232;28;47178;-76
2023/09/14 07:43:25;;;;;;;;;19.00;17.00;;;;;;;;5059370;28;45451;-76
2023/09/14 07:45:50;;;;;;;;;21.67;21.67;;;;;;;;5064210;28;45288;-76
2023/09/14 07:48:16;;;;;;;;;23.00;22.00;;;;;;;;5064095;28;45261;-75
2023/09/14 07:50:41;;;;;;;;;24.00;24.00;;;;;;;;5059391;28;45933;-75
2023/09/14 07:53:07;;;;;;;;;23.33;22.67;;;;;;;;5067067;28;45268;-76
2023/09/14 07:55:32;;;;;;;;;28.67;24.67;;;;;;;;5069956;28;45468;-75
2023/09/14 07:57:58;;;;;;;;;25.67;23.67;;;;;;;;5067217;28;45251;-76
2023/09/14 08:00:23;;;;;;;;;21.00;21.00;;;;;;;;5068732;28;45626;-76
2023/09/14 08:02:48;;;;;;;;;23.33;22.67;;;;;;;;5055255;28;45400;-76
2023/09/14 08:05:13;;;;;;;;;25.00;23.67;;;;;;;;5061217;28;45520;-76
2023/09/14 08:07:39;;;;;;;;;24.33;24.00;;;;;;;;5060975;28;46047;-75
2023/09/14 08:10:04;;;;;;;;;21.00;21.00;;;;;;;;5079281;28;45419;-75
2023/09/14 08:12:29;;;;;;;;;21.67;21.00;;;;;;;;5061107;28;45849;-75
2023/09/14 08:14:55;;;;;;;;;21.67;19.67;;;;;;;;5074977;28;45291;-75
2023/09/14 08:17:20;;;;;;;;;19.67;18.67;;;;;;;;5056921;28;45423;-75
2023/09/14 08:19:45;;;;;;;;;26.33;24.67;;;;;;;;5044418;28;46763;-75
2023/09/14 08:22:10;;;;;;;;;41.67;34.33;;;;;;;;5064508;28;45387;-75
2023/09/14 08:24:35;;;;;;;;;24.00;23.67;;;;;;;;5044400;28;45449;-74
2023/09/14 08:27:01;;;;;;;;;25.00;25.00;;;;;;;;5062273;28;45499;-76
2023/09/14 08:29:26;;;;;;;;;24.00;22.67;;;;;;;;5054592;28;48205;-75
2023/09/14 08:31:51;;;;;;;;;24.00;22.00;;;;;;;;5045979;28;45423;-74
2023/09/14 08:34:16;;;;;;;;;22.00;21.67;;;;;;;;5058482;28;45443;-75
2023/09/14 08:36:41;;;;;;;;;22.00;19.00;;;;;;;;5049461;28;46840;-75
2023/09/14 08:39:07;;;;;;;;;18.33;18.00;;;;;;;;5072334;28;45388;-75
2023/09/14 08:41:43;;;;;;;;;16.00;16.00;;;;;;;;5076124;28;45349;-77
2023/09/14 08:44:08;;;;;;;;;13.00;13.00;;;;;;;;5043617;28;45330;-75
2023/09/14 08:46:34;;;;;;;;;22.67;21.67;;;;;;;;5060903;28;45340;-76
2023/09/14 08:49:00;;;;;;;;;23.00;21.00;;;;;;;;5061352;28;45997;-75
2023/09/14 08:51:27;;;;;;;;;53.67;41.67;;;;;;;;5060922;28;45540;-75
2023/09/14 08:53:52;;;;;;;;;37.33;31.67;;;;;;;;5061172;28;45338;-76
2023/09/14 08:56:18;;;;;;;;;31.33;29.67;;;;;;;;5061272;28;45432;-74
2023/09/14 08:58:44;;;;;;;;;35.00;31.67;;;;;;;;5061309;28;45311;-75
2023/09/14 09:01:11;;;;;;;;;45.00;36.67;;;;;;;;5064500;28;45457;-75
2023/09/14 09:03:36;;;;;;;;;43.67;36.33;;;;;;;;5059556;28;45437;-75
2023/09/14 09:06:01;;;;;;;;;40.33;33.33;;;;;;;;5068380;28;45363;-75
2023/09/14 09:08:28;;;;;;;;;36.00;30.00;;;;;;;;5056379;28;45443;-76
2023/09/14 09:10:53;;;;;;;;;40.33;33.00;;;;;;;;5054177;28;45435;-76
2023/09/14 09:13:19;;;;;;;;;28.67;27.00;;;;;;;;5059427;28;45782;-76
2023/09/14 09:15:44;;;;;;;;;33.00;30.33;;;;;;;;5061290;28;45449;-77
2023/09/14 09:18:10;;;;;;;;;23.00;22.33;;;;;;;;5076319;28;45467;-77
2023/09/14 09:20:36;;;;;;;;;18.67;18.67;;;;;;;;5060348;28;45425;-76
2023/09/14 09:23:02;;;;;;;;;15.00;15.00;;;;;;;;5081656;28;45376;-77
2023/09/14 09:25:31;;;;;;;;;17.67;17.00;;;;;;;;5047416;28;45277;-76
2023/09/14 09:28:00;;;;;;;;;17.00;17.00;;;;;;;;5039857;28;45404;-81
2023/09/14 09:30:32;;;;;;;;;13.67;13.00;;;;;;;;5076457;28;45422;-79
2023/09/14 09:32:57;;;;;;;;;15.33;15.33;;;;;;;;5063538;28;45347;-79
2023/09/14 09:35:23;;;;;;;;;11.67;10.00;;;;;;;;5081868;28;45453;-80
2023/09/14 09:37:49;;;;;;;;;13.67;13.00;;;;;;;;5051320;28;47246;-80
2023/09/14 09:40:21;;;;;;;;;13.00;12.67;;;;;;;;5056091;28;45264;-78
2023/09/14 09:42:47;;;;;;;;;14.00;13.67;;;;;;;;5061982;28;45387;-79
2023/09/14 09:45:13;;;;;;;;;13.67;13.67;;;;;;;;5077906;28;45265;-81
2023/09/14 09:47:39;;;;;;;;;13.67;13.67;;;;;;;;5070019;28;45355;-81
2023/09/14 09:50:05;;;;;;;;;14.00;13.67;;;;;;;;5068409;28;45264;-83
2023/09/14 09:52:34;;;;;;;;;7.67;7.67;;;;;;;;5063251;28;45166;-84
2023/09/14 09:54:59;;;;;;;;;13.00;13.00;;;;;;;;5071176;28;45529;-83
2023/09/14 09:57:29;;;;;;;;;8.67;8.00;;;;;;;;5050277;28;47235;-83
2023/09/14 09:59:55;;;;;;;;;9.33;9.33;;;;;;;;5060485;28;45367;-83
2023/09/14 10:02:33;;;;;;;;;12.00;10.33;;;;;;;;5041755;28;45407;-84
2023/09/14 10:04:58;;;;;;;;;7.33;7.33;;;;;;;;5022101;28;45458;-79
2023/09/14 10:07:24;;;;;;;;;10.00;10.00;;;;;;;;5039984;28;45388;-80
2023/09/14 10:09:51;;;;;;;;;10.25;10.00;;;;;;;;5040160;28;45336;-79
2023/09/14 10:12:16;;;;;;;;;14.67;12.33;;;;;;;;5025883;28;45325;-79
2023/09/14 10:14:43;;;;;;;;;11.67;11.67;;;;;;;;5060581;28;45455;-79
2023/09/14 10:17:11;;;;;;;;;10.00;10.00;;;;;;;;5060231;28;46180;-79
2023/09/14 10:19:37;;;;;;;;;10.00;10.00;;;;;;;;5060413;28;45327;-79
2023/09/14 10:22:03;;;;;;;;;11.67;9.33;;;;;;;;5059746;28;45512;-81
2023/09/14 10:24:28;;;;;;;;;9.67;9.67;;;;;;;;5042769;28;47158;-82
2023/09/14 10:26:53;;;;;;;;;8.50;7.50;;;;;;;;5043377;28;48325;-81
2023/09/14 10:29:21;;;;;;;;;10.00;8.75;;;;;;;;5044560;28;45357;-81
2023/09/14 10:31:48;;;;;;;;;8.25;7.50;;;;;;;;5059373;28;45351;-78
2023/09/14 10:34:14;;;;;;;;;9.50;9.50;;;;;;;;5062057;28;45356;-79
2023/09/14 10:36:40;;;;;;;;;9.00;9.00;;;;;;;;5043789;28;48327;-79
2023/09/14 10:39:06;;;;;;;;;9.75;9.75;;;;;;;;5060758;28;45769;-80
2023/09/14 10:41:32;;;;;;;;;10.50;10.50;;;;;;;;5042773;28;45207;-78
2023/09/14 10:43:57;;;;;;;;;11.67;11.00;;;;;;;;5042546;28;46103;-79
2023/09/14 10:46:24;;;;;;;;;9.67;9.00;;;;;;;;5061450;28;45879;-80
2023/09/14 10:48:50;;;;;;;;;9.67;9.67;;;;;;;;5051060;28;45704;-81
2023/09/14 10:51:15;;;;;;;;;8.67;8.67;;;;;;;;5070329;28;45494;-79
2023/09/14 10:53:41;;;;;;;;;12.33;10.00;;;;;;;;5063799;28;45375;-81
2023/09/14 10:56:18;;;;;;;;;8.67;8.67;;;;;;;;5061936;28;46418;-81
2023/09/14 10:58:43;;;;;;;;;11.67;11.67;;;;;;;;5067400;28;45343;-81
2023/09/14 11:01:09;;;;;;;;;10.00;10.00;;;;;;;;5038379;28;47273;-81
2023/09/14 11:03:53;;;;;;;;;10.67;10.67;;;;;;;;5055906;28;45428;-78
2023/09/14 11:06:37;;;;;;;;;10.33;10.33;;;;;;;;5047946;28;46561;-77
2023/09/14 11:09:05;;;;;;;;;10.00;10.00;;;;;;;;5054985;28;45379;-77
2023/09/14 11:11:37;;;;;;;;;10.67;10.67;;;;;;;;5073399;28;45438;-78
2023/09/14 11:14:06;;;;;;;;;8.67;8.67;;;;;;;;5050981;28;45451;-79
2023/09/14 11:16:41;;;;;;;;;12.00;12.00;;;;;;;;5045750;28;48458;-78
2023/09/14 11:19:06;;;;;;;;;12.67;12.67;;;;;;;;5063272;28;45239;-79
2023/09/14 11:21:33;;;;;;;;;10.67;10.67;;;;;;;;5060802;28;45273;-78
2023/09/14 11:23:59;;;;;;;;;12.67;12.67;;;;;;;;5029724;28;47216;-78
2023/09/14 11:26:31;;;;;;;;;11.33;10.00;;;;;;;;5047308;28;46596;-79
2023/09/14 11:28:57;;;;;;;;;13.00;13.00;;;;;;;;5063558;28;45365;-81
2023/09/14 11:31:29;;;;;;;;;14.33;13.33;;;;;;;;5060122;28;45358;-79
2023/09/14 11:33:55;;;;;;;;;13.00;12.33;;;;;;;;5072071;28;45365;-80
2023/09/14 11:36:24;;;;;;;;;10.00;9.00;;;;;;;;5039253;28;47990;-81
2023/09/14 11:38:49;;;;;;;;;11.00;10.00;;;;;;;;5057829;28;45361;-80
2023/09/14 11:41:33;;;;;;;;;8.75;7.50;;;;;;;;5058646;28;45336;-78
2023/09/14 11:44:02;;;;;;;;;8.75;8.50;;;;;;;;5057959;28;45522;-80
2023/09/14 11:46:27;;;;;;;;;10.50;10.00;;;;;;;;5058494;28;46498;-80
2023/09/14 11:48:52;;;;;;;;;8.75;8.75;;;;;;;;5053506;28;45265;-79
2023/09/14 11:51:24;;;;;;;;;11.25;10.75;;;;;;;;5029497;28;45748;-79
2023/09/14 11:53:49;;;;;;;;;8.50;7.50;;;;;;;;5057426;28;45330;-79
2023/09/14 11:56:16;;;;;;;;;8.00;8.00;;;;;;;;5058296;28;46216;-78
2023/09/14 11:58:43;;;;;;;;;10.50;8.75;;;;;;;;5058860;28;45453;-79
2023/09/14 12:01:08;;;;;;;;;9.67;9.67;;;;;;;;5040189;28;45361;-80
2023/09/14 12:03:36;;;;;;;;;10.25;10.25;;;;;;;;5058524;28;45439;-79
2023/09/14 12:06:03;;;;;;;;;7.50;7.25;;;;;;;;5039770;28;47194;-80
2023/09/14 12:08:28;;;;;;;;;9.00;9.00;;;;;;;;5057992;28;45295;-78
2023/09/14 12:10:54;;;;;;;;;10.75;10.00;;;;;;;;5040511;28;45318;-79
2023/09/14 12:13:20;;;;;;;;;9.25;9.25;;;;;;;;5057088;28;45533;-80
2023/09/14 12:15:46;;;;;;;;;8.00;8.00;;;;;;;;5058064;28;45344;-80
2023/09/14 12:18:12;;;;;;;;;7.67;7.67;;;;;;;;5058589;28;45332;-80
2023/09/14 12:20:42;;;;;;;;;7.25;6.75;;;;;;;;5058376;28;45379;-80
2023/09/14 12:23:09;;;;;;;;;7.67;7.67;;;;;;;;5062891;28;45388;-79
2023/09/14 12:25:34;;;;;;;;;8.00;8.00;;;;;;;;5042987;28;46011;-80
2023/09/14 12:28:03;;;;;;;;;7.50;7.50;;;;;;;;5057848;28;45336;-80
2023/09/14 12:30:29;;;;;;;;;8.00;8.00;;;;;;;;5075582;28;45353;-80
2023/09/14 12:32:54;;;;;;;;;7.00;6.00;;;;;;;;5077822;28;45351;-81
2023/09/14 12:35:19;;;;;;;;;23.33;18.00;;;;;;;;5078196;28;46295;-78
2023/09/14 12:37:45;;;;;;;;;9.00;9.00;;;;;;;;5059588;28;45398;-79
2023/09/14 12:40:12;;;;;;;;;9.00;9.00;;;;;;;;5078140;28;45491;-79
2023/09/14 12:42:40;;;;;;;;;7.75;7.50;;;;;;;;5078233;28;45394;-80
2023/09/14 12:45:17;;;;;;;;;13.00;12.00;;;;;;;;5077640;28;46283;-79
2023/09/14 12:47:44;;;;;;;;;12.33;12.33;;;;;;;;5059869;28;45369;-79
2023/09/14 12:50:15;;;;;;;;;10.00;9.00;;;;;;;;5049773;28;45482;-79
2023/09/14 12:52:41;;;;;;;;;16.67;16.00;;;;;;;;5057484;28;46069;-80
2023/09/14 12:55:11;;;;;;;;;11.00;11.00;;;;;;;;5057478;28;45350;-79
2023/09/14 12:57:36;;;;;;;;;7.67;7.67;;;;;;;;5057885;28;45520;-79
2023/09/14 13:00:11;;;;;;;;;9.33;9.33;;;;;;;;5076826;28;45717;-80
2023/09/14 13:02:38;;;;;;;;;6.75;6.75;;;;;;;;5059662;28;46511;-77
2023/09/14 13:05:04;;;;;;;;;12.33;10.67;;;;;;;;5062965;28;46433;-77
2023/09/14 13:07:30;;;;;;;;;10.67;10.67;;;;;;;;5061680;28;45276;-80
2023/09/14 13:10:16;;;;;;;;;9.00;9.00;;;;;;;;5050244;28;46442;-80
2023/09/14 13:12:48;;;;;;;;;7.00;5.75;;;;;;;;5060449;28;45702;-80
2023/09/14 13:15:18;;;;;;;;;6.00;6.00;;;;;;;;5043120;28;47892;-79
2023/09/14 13:17:43;;;;;;;;;7.00;7.00;;;;;;;;5061142;28;45542;-79
2023/09/14 13:20:09;;;;;;;;;10.00;9.33;;;;;;;;5061944;28;45465;-80
2023/09/14 13:22:34;;;;;;;;;12.00;11.33;;;;;;;;5043404;28;46143;-79
2023/09/14 13:24:59;;;;;;;;;5.00;5.00;;;;;;;;5061762;28;46495;-79
2023/09/14 13:27:25;;;;;;;;;5.25;5.25;;;;;;;;5061428;28;45376;-79
2023/09/14 13:29:50;;;;;;;;;5.50;5.00;;;;;;;;5074607;28;45368;-80
2023/09/14 13:32:17;;;;;;;;;4.00;4.00;;;;;;;;5081672;28;45316;-79
2023/09/14 13:34:42;;;;;;;;;5.00;5.00;;;;;;;;5080787;28;45376;-79
2023/09/14 13:37:07;;;;;;;;;5.00;5.00;;;;;;;;5063261;28;45348;-79
2023/09/14 13:39:33;;;;;;;;;5.50;5.50;;;;;;;;5082059;28;45211;-79
2023/09/14 13:41:58;;;;;;;;;3.75;3.75;;;;;;;;5081835;28;45474;-79
2023/09/14 13:44:24;;;;;;;;;5.00;5.00;;;;;;;;5081834;28;46297;-79
2023/09/14 13:46:49;;;;;;;;;6.00;6.00;;;;;;;;5081853;28;45343;-79
2023/09/14 13:49:14;;;;;;;;;4.50;4.00;;;;;;;;5082039;28;45338;-79
2023/09/14 13:51:39;;;;;;;;;5.00;5.00;;;;;;;;5081585;28;45298;-79
2023/09/14 13:54:04;;;;;;;;;5.75;5.75;;;;;;;;5081517;28;45347;-79
2023/09/14 13:56:30;;;;;;;;;5.25;5.25;;;;;;;;5081571;28;45283;-79
2023/09/14 13:58:55;;;;;;;;;6.00;6.00;;;;;;;;5081632;28;45489;-80
2023/09/14 14:01:20;;;;;;;;;6.75;6.00;;;;;;;;5081701;28;45350;-79
2023/09/14 14:03:45;;;;;;;;;5.00;5.00;;;;;;;;5063384;28;48144;-79
2023/09/14 14:06:11;;;;;;;;;4.00;4.00;;;;;;;;5081381;28;45284;-79
2023/09/14 14:08:36;;;;;;;;;6.00;6.00;;;;;;;;5081512;28;45523;-79
2023/09/14 14:11:01;;;;;;;;;4.50;4.00;;;;;;;;5081573;28;45455;-79
2023/09/14 14:13:27;;;;;;;;;4.75;4.75;;;;;;;;5063229;28;47051;-79
2023/09/14 14:15:52;;;;;;;;;4.25;4.25;;;;;;;;5062703;28;45371;-80